Craig Municipal Airport
KCRG : rendu visible

Aérodrome :











RETROUVEZ-NOUS SUR...

 
LOGIN :

S'inscrire | Disclaimer

   EN    FR    IT 

 









Légende :    VFR   VFR Marginal   IFR   IFR Intensif   IFR Très Intensif
Visi : 
Plafond : 
>= 8 km
>= 3000ft
5 à 8 km
1000 à 3000 ft
1500m à 5 km
500 à 1000 ft
800 à 1500m
200 à 500 ft
< 800m
< 200 ft
Symboles :   Orages  Brouillard  Fortes neiges  Fortes précipitations  Vent > 20 kt






- Altitude de l'aérodrome : 41 ft


KCRG - Craig Municipal

DERNIER METAR :
  • 191653Z 17016G24KT 10SM BKN015 BKN023 OVC065 26/23 A2981 RMK AO2 SLP094 T02560233

METARs EXPIRÉS :
  • 191553Z 16011KT 7SM FEW032 OVC070 24/23 A2984 RMK AO2 RAE1459B03E23 SLP105 P0002 T02440233
  • 191518Z 16013G21KT 4SM -RA BR FEW011 BKN031 OVC060 24/23 A2986 RMK AO2 RAE1459B03 P0002 T02390228
  • 191510Z 15013KT 4SM -RA BR SCT007 BKN014 OVC028 24/23 A2986 RMK AO2 RAE1459B03 P0000 T02390233
  • 191501Z 16011G21KT 8SM SCT008 BKN015 OVC040 24/23 A2986 RMK AO2 RAE1459 P0000 T02390233
  • 191453Z 17007G15KT 140V200 4SM -RA BR BKN008 BKN015 OVC047 24/23 A2986 RMK AO2 SLP110 P0019 60031 T02390228 55006
  • 191437Z 13011KT 1 3/4SM -RA BR SCT014 BKN025 OVC046 24/23 A2986 RMK AO2 VIS 3/4V5 P0006 T02390228
  • 191424Z 12011G18KT 6SM -RA BR SCT009 BKN023 OVC050 24/23 A2986 RMK AO2 P0001 T02390228

TAF KCRG
Valide du 19 à 13h jusqu'au 20 à 12h UTC


191326Z 1913/2012 11012G20KT 5SM -SHRA BR BKN015 OVC030
TEMPO 1914/1915 15020G30KT 2SM +SHRA BR BKN009 OVC025
FM191700 14018G30KT P6SM -SHRA VCTS SCT015 BKN025CB OVC060
FM192100 17018G30KT P6SM -SHRA VCTS SCT020 BKN030CB BKN090
FM200100 20013G20KT P6SM -SHRA VCTS SCT015 BKN025CB OVC120



MET'MAP, la Météo Aéronautique d'un coup d'oeil ! - Copyright ORBIFLY Décembre 2007 - Disclaimer

ORBIFLY MET'MAP TEAM :

Programmation & Développement : Alexandra Zaïnal
Conception & Développement : Baudouin d'Aumeries
Co-Programmation & Développement : Marc-Olivier Méhu
Soutien technique & logistique : Manuel Goepfert

Contact : metmap@orbifly.com




SOURCES & CREDITS :

   NOAA       Earth
Advisory